sensor_id;sensor_type;location;lat;lon;timestamp;temperature;humidity
67054;SHT31;53960;51.826;5.850;2022-12-29T00:02:11;10.53;94.45
67054;SHT31;53960;51.826;5.850;2022-12-29T00:04:37;10.52;94.46
67054;SHT31;53960;51.826;5.850;2022-12-29T00:07:03;10.55;94.35
67054;SHT31;53960;51.826;5.850;2022-12-29T00:09:30;10.55;94.40
67054;SHT31;53960;51.826;5.850;2022-12-29T00:11:56;10.53;94.40
67054;SHT31;53960;51.826;5.850;2022-12-29T00:14:21;10.64;94.04
67054;SHT31;53960;51.826;5.850;2022-12-29T00:17:04;10.66;94.05
67054;SHT31;53960;51.826;5.850;2022-12-29T00:19:30;10.64;93.99
67054;SHT31;53960;51.826;5.850;2022-12-29T00:22:14;10.60;94.46
67054;SHT31;53960;51.826;5.850;2022-12-29T00:24:57;10.59;94.81
67054;SHT31;53960;51.826;5.850;2022-12-29T00:27:41;10.60;94.96
67054;SHT31;53960;51.826;5.850;2022-12-29T00:30:25;10.67;94.80
67054;SHT31;53960;51.826;5.850;2022-12-29T00:35:57;10.62;95.04
67054;SHT31;53960;51.826;5.850;2022-12-29T00:38:23;10.57;95.04
67054;SHT31;53960;51.826;5.850;2022-12-29T00:41:07;10.55;95.11
67054;SHT31;53960;51.826;5.850;2022-12-29T00:43:51;10.52;94.92
67054;SHT31;53960;51.826;5.850;2022-12-29T00:46:40;10.55;94.64
67054;SHT31;53960;51.826;5.850;2022-12-29T00:49:07;10.55;94.55
67054;SHT31;53960;51.826;5.850;2022-12-29T00:51:53;10.52;94.52
67054;SHT31;53960;51.826;5.850;2022-12-29T00:54:19;10.53;94.30
67054;SHT31;53960;51.826;5.850;2022-12-29T00:56:48;10.53;94.37
67054;SHT31;53960;51.826;5.850;2022-12-29T00:59:14;10.52;94.25
67054;SHT31;53960;51.826;5.850;2022-12-29T01:01:40;10.55;94.27
67054;SHT31;53960;51.826;5.850;2022-12-29T01:04:06;10.49;94.67
67054;SHT31;53960;51.826;5.850;2022-12-29T01:06:32;10.43;95.02
67054;SHT31;53960;51.826;5.850;2022-12-29T01:08:58;10.36;95.44
67054;SHT31;53960;51.826;5.850;2022-12-29T01:11:42;10.34;95.44
67054;SHT31;53960;51.826;5.850;2022-12-29T01:14:07;10.26;95.60
67054;SHT31;53960;51.826;5.850;2022-12-29T01:16:33;10.24;95.89
67054;SHT31;53960;51.826;5.850;2022-12-29T01:18:59;10.21;96.16
67054;SHT31;53960;51.826;5.850;2022-12-29T01:21:25;10.15;96.44
67054;SHT31;53960;51.826;5.850;2022-12-29T01:23:50;10.14;96.33
67054;SHT31;53960;51.826;5.850;2022-12-29T01:26:17;10.16;96.58
67054;SHT31;53960;51.826;5.850;2022-12-29T01:28:43;10.19;96.80
67054;SHT31;53960;51.826;5.850;2022-12-29T01:31:09;10.18;96.92
67054;SHT31;53960;51.826;5.850;2022-12-29T01:33:35;10.21;96.92
67054;SHT31;53960;51.826;5.850;2022-12-29T01:36:05;10.19;97.03
67054;SHT31;53960;51.826;5.850;2022-12-29T01:38:31;10.21;97.18
67054;SHT31;53960;51.826;5.850;2022-12-29T01:40:57;10.25;97.16
67054;SHT31;53960;51.826;5.850;2022-12-29T01:46:19;10.31;97.11
67054;SHT31;53960;51.826;5.850;2022-12-29T01:48:47;10.32;97.21
67054;SHT31;53960;51.826;5.850;2022-12-29T01:51:14;10.39;97.09
67054;SHT31;53960;51.826;5.850;2022-12-29T01:53:41;10.39;96.95
67054;SHT31;53960;51.826;5.850;2022-12-29T01:56:10;10.45;96.86
67054;SHT31;53960;51.826;5.850;2022-12-29T01:58:40;10.46;96.50
67054;SHT31;53960;51.826;5.850;2022-12-29T02:01:06;10.46;96.36
67054;SHT31;53960;51.826;5.850;2022-12-29T02:03:32;10.48;96.23
67054;SHT31;53960;51.826;5.850;2022-12-29T02:06:08;10.50;95.87
67054;SHT31;53960;51.826;5.850;2022-12-29T02:08:37;10.55;95.76
67054;SHT31;53960;51.826;5.850;2022-12-29T02:11:02;10.63;95.21
67054;SHT31;53960;51.826;5.850;2022-12-29T02:13:28;10.69;94.37
67054;SHT31;53960;51.826;5.850;2022-12-29T02:24:34;10.90;92.48
67054;SHT31;53960;51.826;5.850;2022-12-29T02:29:40;10.94;92.09
67054;SHT31;53960;51.826;5.850;2022-12-29T02:35:16;10.96;91.57
67054;SHT31;53960;51.826;5.850;2022-12-29T02:37:58;10.99;91.32
67054;SHT31;53960;51.826;5.850;2022-12-29T02:40:48;11.00;91.09
67054;SHT31;53960;51.826;5.850;2022-12-29T02:46:22;11.03;90.60
67054;SHT31;53960;51.826;5.850;2022-12-29T02:49:01;11.01;90.76
67054;SHT31;53960;51.826;5.850;2022-12-29T02:54:25;11.07;90.13
67054;SHT31;53960;51.826;5.850;2022-12-29T02:59:49;11.20;89.30
67054;SHT31;53960;51.826;5.850;2022-12-29T03:05:48;11.18;89.36
67054;SHT31;53960;51.826;5.850;2022-12-29T03:11:12;11.20;89.17
67054;SHT31;53960;51.826;5.850;2022-12-29T03:14:26;11.21;88.97
67054;SHT31;53960;51.826;5.850;2022-12-29T03:17:26;11.23;88.72
67054;SHT31;53960;51.826;5.850;2022-12-29T03:19:59;11.24;88.81
67054;SHT31;53960;51.826;5.850;2022-12-29T03:22:28;11.28;88.51
67054;SHT31;53960;51.826;5.850;2022-12-29T03:25:03;11.21;88.90
67054;SHT31;53960;51.826;5.850;2022-12-29T03:27:34;11.21;89.06
67054;SHT31;53960;51.826;5.850;2022-12-29T03:30:04;11.21;89.10
67054;SHT31;53960;51.826;5.850;2022-12-29T03:32:33;11.20;89.03
67054;SHT31;53960;51.826;5.850;2022-12-29T03:35:00;11.17;89.16
67054;SHT31;53960;51.826;5.850;2022-12-29T03:37:35;11.15;89.19
67054;SHT31;53960;51.826;5.850;2022-12-29T03:40:03;11.15;89.19
67054;SHT31;53960;51.826;5.850;2022-12-29T03:42:31;11.17;89.25
67054;SHT31;53960;51.826;5.850;2022-12-29T03:44:57;11.15;89.25
67054;SHT31;53960;51.826;5.850;2022-12-29T03:47:23;11.14;89.27
67054;SHT31;53960;51.826;5.850;2022-12-29T03:49:49;11.18;89.15
67054;SHT31;53960;51.826;5.850;2022-12-29T03:52:16;11.15;89.17
67054;SHT31;53960;51.826;5.850;2022-12-29T03:54:41;11.08;89.23
67054;SHT31;53960;51.826;5.850;2022-12-29T03:57:07;11.08;89.08
67054;SHT31;53960;51.826;5.850;2022-12-29T03:59:33;11.07;89.31
67054;SHT31;53960;51.826;5.850;2022-12-29T04:01:58;11.01;89.49
67054;SHT31;53960;51.826;5.850;2022-12-29T04:04:23;11.03;89.73
67054;SHT31;53960;51.826;5.850;2022-12-29T04:06:49;10.97;89.84
67054;SHT31;53960;51.826;5.850;2022-12-29T04:09:14;10.97;89.83
67054;SHT31;53960;51.826;5.850;2022-12-29T04:11:39;10.96;89.88
67054;SHT31;53960;51.826;5.850;2022-12-29T04:14:05;10.96;89.39
67054;SHT31;53960;51.826;5.850;2022-12-29T04:16:30;11.00;89.34
67054;SHT31;53960;51.826;5.850;2022-12-29T04:18:56;10.96;89.56
67054;SHT31;53960;51.826;5.850;2022-12-29T04:21:21;10.99;89.11
67054;SHT31;53960;51.826;5.850;2022-12-29T04:23:46;10.97;89.36
67054;SHT31;53960;51.826;5.850;2022-12-29T04:26:12;11.01;89.43
67054;SHT31;53960;51.826;5.850;2022-12-29T04:28:38;11.01;89.38
67054;SHT31;53960;51.826;5.850;2022-12-29T04:31:04;11.00;89.41
67054;SHT31;53960;51.826;5.850;2022-12-29T04:33:29;11.00;89.51
67054;SHT31;53960;51.826;5.850;2022-12-29T04:35:54;10.99;89.71
67054;SHT31;53960;51.826;5.850;2022-12-29T04:38:22;10.93;90.62
67054;SHT31;53960;51.826;5.850;2022-12-29T04:40:48;10.84;91.70
67054;SHT31;53960;51.826;5.850;2022-12-29T04:43:13;10.74;92.03
67054;SHT31;53960;51.826;5.850;2022-12-29T04:45:43;10.66;92.46
67054;SHT31;53960;51.826;5.850;2022-12-29T04:48:08;10.64;92.69
67054;SHT31;53960;51.826;5.850;2022-12-29T04:50:34;10.62;92.80
67054;SHT31;53960;51.826;5.850;2022-12-29T04:53:00;10.55;92.87
67054;SHT31;53960;51.826;5.850;2022-12-29T04:55:25;10.50;93.03
67054;SHT31;53960;51.826;5.850;2022-12-29T04:57:50;10.48;92.86
67054;SHT31;53960;51.826;5.850;2022-12-29T05:00:16;10.48;92.46
67054;SHT31;53960;51.826;5.850;2022-12-29T05:02:41;10.46;92.48
67054;SHT31;53960;51.826;5.850;2022-12-29T05:05:07;10.42;92.57
67054;SHT31;53960;51.826;5.850;2022-12-29T05:07:32;10.39;92.34
67054;SHT31;53960;51.826;5.850;2022-12-29T05:09:58;10.42;92.41
67054;SHT31;53960;51.826;5.850;2022-12-29T05:12:24;10.38;92.36
67054;SHT31;53960;51.826;5.850;2022-12-29T05:14:49;10.32;93.09
67054;SHT31;53960;51.826;5.850;2022-12-29T05:17:14;10.24;93.10
67054;SHT31;53960;51.826;5.850;2022-12-29T05:19:40;10.21;93.21
67054;SHT31;53960;51.826;5.850;2022-12-29T05:22:05;10.21;93.29
67054;SHT31;53960;51.826;5.850;2022-12-29T05:24:30;10.21;92.50
67054;SHT31;53960;51.826;5.850;2022-12-29T05:26:56;10.15;92.33
67054;SHT31;53960;51.826;5.850;2022-12-29T05:29:21;10.12;92.50
67054;SHT31;53960;51.826;5.850;2022-12-29T05:31:46;10.11;92.28
67054;SHT31;53960;51.826;5.850;2022-12-29T05:34:12;10.01;92.53
67054;SHT31;53960;51.826;5.850;2022-12-29T05:36:38;10.01;92.07
67054;SHT31;53960;51.826;5.850;2022-12-29T05:39:04;9.99;91.66
67054;SHT31;53960;51.826;5.850;2022-12-29T05:41:29;10.04;91.02
67054;SHT31;53960;51.826;5.850;2022-12-29T05:43:55;10.05;90.98
67054;SHT31;53960;51.826;5.850;2022-12-29T05:46:20;10.05;90.76
67054;SHT31;53960;51.826;5.850;2022-12-29T05:48:45;10.08;90.72
67054;SHT31;53960;51.826;5.850;2022-12-29T05:51:11;10.04;90.42
67054;SHT31;53960;51.826;5.850;2022-12-29T05:53:36;9.99;90.46
67054;SHT31;53960;51.826;5.850;2022-12-29T05:56:01;10.04;89.69
67054;SHT31;53960;51.826;5.850;2022-12-29T05:58:27;10.05;89.12
67054;SHT31;53960;51.826;5.850;2022-12-29T06:00:52;10.05;88.71
67054;SHT31;53960;51.826;5.850;2022-12-29T06:03:17;10.06;88.76
67054;SHT31;53960;51.826;5.850;2022-12-29T06:05:45;10.01;88.54
67054;SHT31;53960;51.826;5.850;2022-12-29T06:08:10;10.02;88.09
67054;SHT31;53960;51.826;5.850;2022-12-29T06:10:36;10.05;87.98
67054;SHT31;53960;51.826;5.850;2022-12-29T06:13:01;10.05;87.88
67054;SHT31;53960;51.826;5.850;2022-12-29T06:15:26;10.05;87.63
67054;SHT31;53960;51.826;5.850;2022-12-29T06:17:52;10.04;87.30
67054;SHT31;53960;51.826;5.850;2022-12-29T06:20:17;10.04;87.17
67054;SHT31;53960;51.826;5.850;2022-12-29T06:22:42;10.05;87.08
67054;SHT31;53960;51.826;5.850;2022-12-29T06:25:08;10.01;87.30
67054;SHT31;53960;51.826;5.850;2022-12-29T06:27:34;9.99;87.09
67054;SHT31;53960;51.826;5.850;2022-12-29T06:29:59;9.95;87.26
67054;SHT31;53960;51.826;5.850;2022-12-29T06:32:25;9.90;87.27
67054;SHT31;53960;51.826;5.850;2022-12-29T06:34:50;9.94;86.89
67054;SHT31;53960;51.826;5.850;2022-12-29T06:37:15;9.94;86.75
67054;SHT31;53960;51.826;5.850;2022-12-29T06:39:40;9.98;86.23
67054;SHT31;53960;51.826;5.850;2022-12-29T06:42:06;10.05;85.87
67054;SHT31;53960;51.826;5.850;2022-12-29T06:44:31;10.05;86.23
67054;SHT31;53960;51.826;5.850;2022-12-29T06:46:57;10.09;85.66
67054;SHT31;53960;51.826;5.850;2022-12-29T06:49:22;10.14;85.82
67054;SHT31;53960;51.826;5.850;2022-12-29T06:51:48;10.11;85.71
67054;SHT31;53960;51.826;5.850;2022-12-29T06:54:13;10.12;85.43
67054;SHT31;53960;51.826;5.850;2022-12-29T06:56:38;10.14;85.10
67054;SHT31;53960;51.826;5.850;2022-12-29T06:59:04;10.15;85.04
67054;SHT31;53960;51.826;5.850;2022-12-29T07:01:29;10.11;85.21
67054;SHT31;53960;51.826;5.850;2022-12-29T07:03:55;10.09;85.18
67054;SHT31;53960;51.826;5.850;2022-12-29T07:06:20;10.08;85.25
67054;SHT31;53960;51.826;5.850;2022-12-29T07:08:46;10.12;85.00
67054;SHT31;53960;51.826;5.850;2022-12-29T07:11:11;10.14;84.62
67054;SHT31;53960;51.826;5.850;2022-12-29T07:13:37;10.16;84.86
67054;SHT31;53960;51.826;5.850;2022-12-29T07:16:06;10.14;85.17
67054;SHT31;53960;51.826;5.850;2022-12-29T07:18:32;10.15;84.90
67054;SHT31;53960;51.826;5.850;2022-12-29T07:20:57;10.18;84.86
67054;SHT31;53960;51.826;5.850;2022-12-29T07:23:23;10.21;84.69
67054;SHT31;53960;51.826;5.850;2022-12-29T07:25:48;10.24;84.63
67054;SHT31;53960;51.826;5.850;2022-12-29T07:28:13;10.26;84.47
67054;SHT31;53960;51.826;5.850;2022-12-29T07:30:39;10.28;84.35
67054;SHT31;53960;51.826;5.850;2022-12-29T07:33:04;10.32;83.96
67054;SHT31;53960;51.826;5.850;2022-12-29T07:35:30;10.39;83.14
67054;SHT31;53960;51.826;5.850;2022-12-29T07:37:55;10.36;83.39
67054;SHT31;53960;51.826;5.850;2022-12-29T07:40:20;10.39;83.84
67054;SHT31;53960;51.826;5.850;2022-12-29T07:42:45;10.42;83.46
67054;SHT31;53960;51.826;5.850;2022-12-29T07:45:11;10.39;83.70
67054;SHT31;53960;51.826;5.850;2022-12-29T07:47:36;10.43;83.14
67054;SHT31;53960;51.826;5.850;2022-12-29T07:50:02;10.48;83.45
67054;SHT31;53960;51.826;5.850;2022-12-29T07:52:27;10.46;83.07
67054;SHT31;53960;51.826;5.850;2022-12-29T07:54:53;10.48;82.82
67054;SHT31;53960;51.826;5.850;2022-12-29T07:57:18;10.49;82.34
67054;SHT31;53960;51.826;5.850;2022-12-29T07:59:43;10.39;82.81
67054;SHT31;53960;51.826;5.850;2022-12-29T08:02:12;10.41;82.47
67054;SHT31;53960;51.826;5.850;2022-12-29T08:04:37;10.35;82.45
67054;SHT31;53960;51.826;5.850;2022-12-29T08:07:02;10.28;82.34
67054;SHT31;53960;51.826;5.850;2022-12-29T08:09:28;10.18;82.51
67054;SHT31;53960;51.826;5.850;2022-12-29T08:11:53;10.15;82.51
67054;SHT31;53960;51.826;5.850;2022-12-29T08:14:19;10.15;82.04
67054;SHT31;53960;51.826;5.850;2022-12-29T08:16:44;10.18;81.37
67054;SHT31;53960;51.826;5.850;2022-12-29T08:19:11;10.19;81.55
67054;SHT31;53960;51.826;5.850;2022-12-29T08:21:36;10.21;81.74
67054;SHT31;53960;51.826;5.850;2022-12-29T08:24:02;10.28;81.15
67054;SHT31;53960;51.826;5.850;2022-12-29T08:26:27;10.26;81.63
67054;SHT31;53960;51.826;5.850;2022-12-29T08:28:54;10.24;81.91
67054;SHT31;53960;51.826;5.850;2022-12-29T08:31:21;10.18;82.48
67054;SHT31;53960;51.826;5.850;2022-12-29T08:33:47;10.15;82.33
67054;SHT31;53960;51.826;5.850;2022-12-29T08:36:12;10.15;82.61
67054;SHT31;53960;51.826;5.850;2022-12-29T08:38:38;10.14;82.64
67054;SHT31;53960;51.826;5.850;2022-12-29T08:41:03;10.14;82.73
67054;SHT31;53960;51.826;5.850;2022-12-29T08:43:29;10.19;83.27
67054;SHT31;53960;51.826;5.850;2022-12-29T08:45:54;10.19;82.69
67054;SHT31;53960;51.826;5.850;2022-12-29T08:48:21;10.21;82.96
67054;SHT31;53960;51.826;5.850;2022-12-29T08:50:48;10.19;83.38
67054;SHT31;53960;51.826;5.850;2022-12-29T08:53:14;10.22;83.37
67054;SHT31;53960;51.826;5.850;2022-12-29T08:55:39;10.25;83.34
67054;SHT31;53960;51.826;5.850;2022-12-29T08:58:04;10.29;82.84
67054;SHT31;53960;51.826;5.850;2022-12-29T09:00:30;10.31;82.82
67054;SHT31;53960;51.826;5.850;2022-12-29T09:02:55;10.32;82.51
67054;SHT31;53960;51.826;5.850;2022-12-29T09:05:20;10.36;82.30
67054;SHT31;53960;51.826;5.850;2022-12-29T09:07:46;10.39;81.47
67054;SHT31;53960;51.826;5.850;2022-12-29T09:10:11;10.42;81.29
67054;SHT31;53960;51.826;5.850;2022-12-29T09:12:36;10.49;81.45
67054;SHT31;53960;51.826;5.850;2022-12-29T09:15:03;10.49;81.43
67054;SHT31;53960;51.826;5.850;2022-12-29T09:17:29;10.48;82.31
67054;SHT31;53960;51.826;5.850;2022-12-29T09:20:17;10.46;81.74
67054;SHT31;53960;51.826;5.850;2022-12-29T09:22:43;10.45;81.61
67054;SHT31;53960;51.826;5.850;2022-12-29T09:25:10;10.45;82.28
67054;SHT31;53960;51.826;5.850;2022-12-29T09:27:36;10.46;81.88
67054;SHT31;53960;51.826;5.850;2022-12-29T09:30:04;10.48;81.65
67054;SHT31;53960;51.826;5.850;2022-12-29T09:32:31;10.45;82.04
67054;SHT31;53960;51.826;5.850;2022-12-29T09:34:57;10.46;82.35
67054;SHT31;53960;51.826;5.850;2022-12-29T09:37:22;10.50;82.63
67054;SHT31;53960;51.826;5.850;2022-12-29T09:39:48;10.50;82.21
67054;SHT31;53960;51.826;5.850;2022-12-29T09:45:15;10.52;82.30
67054;SHT31;53960;51.826;5.850;2022-12-29T09:47:43;10.48;83.08
67054;SHT31;53960;51.826;5.850;2022-12-29T09:50:33;10.38;84.08
67054;SHT31;53960;51.826;5.850;2022-12-29T09:53:17;10.31;85.01
67054;SHT31;53960;51.826;5.850;2022-12-29T09:55:52;10.24;85.62
67054;SHT31;53960;51.826;5.850;2022-12-29T09:58:25;10.26;84.56
67054;SHT31;53960;51.826;5.850;2022-12-29T10:01:00;10.29;85.00
67054;SHT31;53960;51.826;5.850;2022-12-29T10:03:36;10.19;85.67
67054;SHT31;53960;51.826;5.850;2022-12-29T10:06:17;10.12;86.90
67054;SHT31;53960;51.826;5.850;2022-12-29T10:17:43;9.90;88.64
67054;SHT31;53960;51.826;5.850;2022-12-29T10:23:22;9.78;89.55
67054;SHT31;53960;51.826;5.850;2022-12-29T10:25:50;9.70;90.81
67054;SHT31;53960;51.826;5.850;2022-12-29T10:28:22;9.63;90.63
67054;SHT31;53960;51.826;5.850;2022-12-29T10:30:49;9.57;91.07
67054;SHT31;53960;51.826;5.850;2022-12-29T10:33:18;9.64;91.51
67054;SHT31;53960;51.826;5.850;2022-12-29T10:35:46;9.58;91.68
67054;SHT31;53960;51.826;5.850;2022-12-29T10:38:29;9.61;92.06
67054;SHT31;53960;51.826;5.850;2022-12-29T10:41:17;9.51;92.68
67054;SHT31;53960;51.826;5.850;2022-12-29T10:43:47;9.53;91.95
67054;SHT31;53960;51.826;5.850;2022-12-29T10:46:17;9.50;92.26
67054;SHT31;53960;51.826;5.850;2022-12-29T10:48:43;9.54;92.50
67054;SHT31;53960;51.826;5.850;2022-12-29T10:51:24;9.56;92.13
67054;SHT31;53960;51.826;5.850;2022-12-29T10:53:58;9.56;92.03
67054;SHT31;53960;51.826;5.850;2022-12-29T10:56:36;9.58;92.08
67054;SHT31;53960;51.826;5.850;2022-12-29T11:04:57;9.69;91.75
67054;SHT31;53960;51.826;5.850;2022-12-29T11:07:27;9.78;91.28
67054;SHT31;53960;51.826;5.850;2022-12-29T11:09:53;9.85;91.14
67054;SHT31;53960;51.826;5.850;2022-12-29T11:12:21;9.87;90.69
67054;SHT31;53960;51.826;5.850;2022-12-29T11:14:47;9.93;90.44
67054;SHT31;53960;51.826;5.850;2022-12-29T11:17:16;9.88;90.35
67054;SHT31;53960;51.826;5.850;2022-12-29T11:19:43;9.93;90.85
67054;SHT31;53960;51.826;5.850;2022-12-29T11:22:26;9.93;90.40
67054;SHT31;53960;51.826;5.850;2022-12-29T11:24:53;9.97;90.70
67054;SHT31;53960;51.826;5.850;2022-12-29T11:27:24;9.88;90.79
67054;SHT31;53960;51.826;5.850;2022-12-29T11:29:52;9.90;90.48
67054;SHT31;53960;51.826;5.850;2022-12-29T11:32:23;9.90;90.47
67054;SHT31;53960;51.826;5.850;2022-12-29T11:34:49;9.91;90.17
67054;SHT31;53960;51.826;5.850;2022-12-29T11:42:39;10.08;90.32
67054;SHT31;53960;51.826;5.850;2022-12-29T11:45:13;10.08;89.23
67054;SHT31;53960;51.826;5.850;2022-12-29T11:47:43;10.05;89.87
67054;SHT31;53960;51.826;5.850;2022-12-29T11:50:17;10.06;89.69
67054;SHT31;53960;51.826;5.850;2022-12-29T11:52:43;10.05;88.98
67054;SHT31;53960;51.826;5.850;2022-12-29T11:55:18;10.09;89.04
67054;SHT31;53960;51.826;5.850;2022-12-29T11:57:45;10.18;88.43
67054;SHT31;53960;51.826;5.850;2022-12-29T12:00:16;10.15;88.19
67054;SHT31;53960;51.826;5.850;2022-12-29T12:03:05;10.18;88.10
67054;SHT31;53960;51.826;5.850;2022-12-29T12:05:48;10.21;88.20
67054;SHT31;53960;51.826;5.850;2022-12-29T12:10:59;10.25;88.14
67054;SHT31;53960;51.826;5.850;2022-12-29T12:14:00;10.28;87.55
67054;SHT31;53960;51.826;5.850;2022-12-29T12:16:33;10.25;86.89
67054;SHT31;53960;51.826;5.850;2022-12-29T12:19:13;10.24;87.47
67054;SHT31;53960;51.826;5.850;2022-12-29T12:21:43;10.22;86.92
67054;SHT31;53960;51.826;5.850;2022-12-29T12:24:33;10.25;86.55
67054;SHT31;53960;51.826;5.850;2022-12-29T12:30:07;10.12;86.39
67054;SHT31;53960;51.826;5.850;2022-12-29T12:36:05;10.15;86.71
67054;SHT31;53960;51.826;5.850;2022-12-29T12:44:24;10.24;87.42
67054;SHT31;53960;51.826;5.850;2022-12-29T12:50:17;10.22;87.53
67054;SHT31;53960;51.826;5.850;2022-12-29T12:55:29;10.21;86.82
67054;SHT31;53960;51.826;5.850;2022-12-29T13:00:38;10.18;87.17
67054;SHT31;53960;51.826;5.850;2022-12-29T13:03:13;10.26;87.30
67054;SHT31;53960;51.826;5.850;2022-12-29T13:06:13;10.34;86.31
67054;SHT31;53960;51.826;5.850;2022-12-29T13:08:49;10.42;86.01
67054;SHT31;53960;51.826;5.850;2022-12-29T13:11:47;10.49;86.32
67054;SHT31;53960;51.826;5.850;2022-12-29T13:14:28;10.49;86.21
67054;SHT31;53960;51.826;5.850;2022-12-29T13:17:06;10.43;85.42
67054;SHT31;53960;51.826;5.850;2022-12-29T13:19:53;10.42;86.01
67054;SHT31;53960;51.826;5.850;2022-12-29T13:22:30;10.42;85.23
67054;SHT31;53960;51.826;5.850;2022-12-29T13:25:08;10.43;84.82
67054;SHT31;53960;51.826;5.850;2022-12-29T13:30:21;10.45;84.09
67054;SHT31;53960;51.826;5.850;2022-12-29T13:38:45;10.36;84.55
67054;SHT31;53960;51.826;5.850;2022-12-29T13:41:16;10.34;84.91
67054;SHT31;53960;51.826;5.850;2022-12-29T13:43:44;10.34;85.13
67054;SHT31;53960;51.826;5.850;2022-12-29T13:46:22;10.31;85.19
67054;SHT31;53960;51.826;5.850;2022-12-29T13:48:59;10.28;85.37
67054;SHT31;53960;51.826;5.850;2022-12-29T13:51:27;10.26;85.49
67054;SHT31;53960;51.826;5.850;2022-12-29T13:54:05;10.25;85.69
67054;SHT31;53960;51.826;5.850;2022-12-29T13:59:29;10.08;88.97
67054;SHT31;53960;51.826;5.850;2022-12-29T14:05:00;9.83;89.60
67054;SHT31;53960;51.826;5.850;2022-12-29T14:07:25;9.73;88.73
67054;SHT31;53960;51.826;5.850;2022-12-29T14:09:53;9.61;88.51
67054;SHT31;53960;51.826;5.850;2022-12-29T14:12:38;9.56;88.52
67054;SHT31;53960;51.826;5.850;2022-12-29T14:17:36;9.37;89.41
67054;SHT31;53960;51.826;5.850;2022-12-29T14:20:03;9.27;90.39
67054;SHT31;53960;51.826;5.850;2022-12-29T14:22:29;9.23;90.76
67054;SHT31;53960;51.826;5.850;2022-12-29T14:24:55;9.20;91.32
67054;SHT31;53960;51.826;5.850;2022-12-29T14:27:43;9.15;91.58
67054;SHT31;53960;51.826;5.850;2022-12-29T14:30:45;9.14;91.72
67054;SHT31;53960;51.826;5.850;2022-12-29T14:33:12;9.11;92.74
67054;SHT31;53960;51.826;5.850;2022-12-29T14:35:41;9.08;93.27
67054;SHT31;53960;51.826;5.850;2022-12-29T14:38:27;9.09;93.40
67054;SHT31;53960;51.826;5.850;2022-12-29T14:41:16;9.15;93.34
67054;SHT31;53960;51.826;5.850;2022-12-29T14:43:52;9.16;93.70
67054;SHT31;53960;51.826;5.850;2022-12-29T14:46:18;9.20;93.49
67054;SHT31;53960;51.826;5.850;2022-12-29T14:48:44;9.23;93.49
67054;SHT31;53960;51.826;5.850;2022-12-29T14:51:17;9.22;93.31
67054;SHT31;53960;51.826;5.850;2022-12-29T14:53:47;9.25;93.05
67054;SHT31;53960;51.826;5.850;2022-12-29T14:56:39;9.32;92.70
67054;SHT31;53960;51.826;5.850;2022-12-29T14:59:09;9.30;92.40
67054;SHT31;53960;51.826;5.850;2022-12-29T15:01:47;9.30;91.93
67054;SHT31;53960;51.826;5.850;2022-12-29T15:04:20;9.32;92.10
67054;SHT31;53960;51.826;5.850;2022-12-29T15:06:46;9.30;91.96
67054;SHT31;53960;51.826;5.850;2022-12-29T15:09:43;9.29;91.99
67054;SHT31;53960;51.826;5.850;2022-12-29T15:14:57;9.32;91.78
67054;SHT31;53960;51.826;5.850;2022-12-29T15:17:30;9.30;91.93
67054;SHT31;53960;51.826;5.850;2022-12-29T15:19:58;9.29;91.47
67054;SHT31;53960;51.826;5.850;2022-12-29T15:22:24;9.30;91.50
67054;SHT31;53960;51.826;5.850;2022-12-29T15:24:54;9.33;91.73
67054;SHT31;53960;51.826;5.850;2022-12-29T15:27:22;9.29;91.54
67054;SHT31;53960;51.826;5.850;2022-12-29T15:29:56;9.30;91.68
67054;SHT31;53960;51.826;5.850;2022-12-29T15:32:26;9.30;91.31
67054;SHT31;53960;51.826;5.850;2022-12-29T15:34:54;9.26;91.24
67054;SHT31;53960;51.826;5.850;2022-12-29T15:39:45;9.27;91.58
67054;SHT31;53960;51.826;5.850;2022-12-29T15:45:11;9.14;91.38
67054;SHT31;53960;51.826;5.850;2022-12-29T15:47:37;9.14;91.49
67054;SHT31;53960;51.826;5.850;2022-12-29T15:50:06;9.15;91.20
67054;SHT31;53960;51.826;5.850;2022-12-29T15:52:33;9.14;91.13
67054;SHT31;53960;51.826;5.850;2022-12-29T15:55:00;9.15;91.05
67054;SHT31;53960;51.826;5.850;2022-12-29T15:59:53;9.14;90.77
67054;SHT31;53960;51.826;5.850;2022-12-29T16:02:20;9.14;90.99
67054;SHT31;53960;51.826;5.850;2022-12-29T16:04:47;9.16;90.43
67054;SHT31;53960;51.826;5.850;2022-12-29T16:07:31;9.18;90.60
67054;SHT31;53960;51.826;5.850;2022-12-29T16:09:59;9.16;90.34
67054;SHT31;53960;51.826;5.850;2022-12-29T16:12:31;9.19;89.92
67054;SHT31;53960;51.826;5.850;2022-12-29T16:15:10;9.22;89.33
67054;SHT31;53960;51.826;5.850;2022-12-29T16:17:49;9.19;88.98
67054;SHT31;53960;51.826;5.850;2022-12-29T16:20:41;9.20;88.46
67054;SHT31;53960;51.826;5.850;2022-12-29T16:23:16;9.15;88.67
67054;SHT31;53960;51.826;5.850;2022-12-29T16:25:43;9.08;88.78
67054;SHT31;53960;51.826;5.850;2022-12-29T16:28:17;9.05;88.92
67054;SHT31;53960;51.826;5.850;2022-12-29T16:30:43;9.04;88.61
67054;SHT31;53960;51.826;5.850;2022-12-29T16:33:39;9.01;88.56
67054;SHT31;53960;51.826;5.850;2022-12-29T16:38:49;8.98;88.28
67054;SHT31;53960;51.826;5.850;2022-12-29T16:41:28;8.95;88.78
67054;SHT31;53960;51.826;5.850;2022-12-29T16:44:22;8.86;88.33
67054;SHT31;53960;51.826;5.850;2022-12-29T16:49:39;8.82;88.31
67054;SHT31;53960;51.826;5.850;2022-12-29T16:52:14;8.79;88.57
67054;SHT31;53960;51.826;5.850;2022-12-29T16:54:49;8.74;88.56
67054;SHT31;53960;51.826;5.850;2022-12-29T16:57:24;8.74;88.46
67054;SHT31;53960;51.826;5.850;2022-12-29T16:59:52;8.71;88.52
67054;SHT31;53960;51.826;5.850;2022-12-29T17:02:20;8.65;88.81
67054;SHT31;53960;51.826;5.850;2022-12-29T17:04:47;8.64;88.53
67054;SHT31;53960;51.826;5.850;2022-12-29T17:07:27;8.67;88.10
67054;SHT31;53960;51.826;5.850;2022-12-29T17:09:53;8.61;87.99
67054;SHT31;53960;51.826;5.850;2022-12-29T17:12:27;8.60;88.15
67054;SHT31;53960;51.826;5.850;2022-12-29T17:15:01;8.58;87.93
67054;SHT31;53960;51.826;5.850;2022-12-29T17:17:32;8.57;88.14
67054;SHT31;53960;51.826;5.850;2022-12-29T17:20:06;8.51;88.22
67054;SHT31;53960;51.826;5.850;2022-12-29T17:22:32;8.54;88.22
67054;SHT31;53960;51.826;5.850;2022-12-29T17:25:00;8.50;87.64
67054;SHT31;53960;51.826;5.850;2022-12-29T17:27:30;8.48;88.03
67054;SHT31;53960;51.826;5.850;2022-12-29T17:29:59;8.43;87.93
67054;SHT31;53960;51.826;5.850;2022-12-29T17:32:26;8.43;87.81
67054;SHT31;53960;51.826;5.850;2022-12-29T17:34:51;8.38;87.95
67054;SHT31;53960;51.826;5.850;2022-12-29T17:39:48;8.37;87.14
67054;SHT31;53960;51.826;5.850;2022-12-29T17:42:13;8.34;87.32
67054;SHT31;53960;51.826;5.850;2022-12-29T17:44:38;8.27;87.57
67054;SHT31;53960;51.826;5.850;2022-12-29T17:47:04;8.30;86.99
67054;SHT31;53960;51.826;5.850;2022-12-29T17:49:29;8.25;87.35
67054;SHT31;53960;51.826;5.850;2022-12-29T17:51:56;8.25;86.88
67054;SHT31;53960;51.826;5.850;2022-12-29T17:54:24;8.23;86.75